Monte Hermoso, Argentina
Current Conditions -  °F | °C
As of 7:00 AM on Wednesday 22 Oct 2014 (Local Time) from SAZM Reporting Station
Clear Clear  
Wind Chill: 63°   Ceiling: Unl
Heat Index: 63°   Visibility: 6mi
Dew Point: 55°   Wind: 14mph
Humidity: 77%   Direction: 340°NNW
Pressure: 29.94"   Gusts: NA
Location:  38.93°S, 61.35°W
Report Text: SAZM 221000Z 34012KT CAVOK 17/13 Q1014
Loading
Personal Weather Stations






























Interactive Weather Map
Tropical Storm Tracking
New forecast layout! Learn more

10-Day Weather Forecast

Advertisements
Track Severe Weather on mobile